Time;durP1;ratioP1;P1;durP2;ratioP2;P2;SDS_P1;SDS_P2;PMS_P1;PMS_P2;Temp;Humidity;BMP_temperature;BMP_pressure;BME280_temperature;BME280_humidity;BME280_pressure;Samples;Min_cycle;Max_cycle;Signal;HPM_P1;HPM_P2
2022/05/29 00:01:13;;;;;;;7.60;2.63;;;10.40;99.90;;;;;;5050983;28;20528;-52
2022/05/29 00:03:41;;;;;;;10.60;2.70;;;10.40;99.90;;;;;;5051740;28;20528;-53
2022/05/29 00:06:09;;;;;;;13.50;3.13;;;10.40;99.90;;;;;;5051614;28;20583;-52
2022/05/29 00:08:39;;;;;;;13.97;3.30;;;10.40;99.90;;;;;;5056632;28;20532;-52
2022/05/29 00:11:08;;;;;;;9.73;2.90;;;10.40;99.90;;;;;;5048920;28;20586;-53
2022/05/29 00:13:34;;;;;;;7.53;2.60;;;10.30;99.90;;;;;;5051632;28;20495;-53
2022/05/29 00:16:01;;;;;;;11.40;3.00;;;10.30;99.90;;;;;;5051442;28;20470;-52
2022/05/29 00:18:28;;;;;;;8.80;2.77;;;10.30;99.90;;;;;;5051592;28;20504;-53
2022/05/29 00:20:58;;;;;;;11.47;2.60;;;10.20;99.90;;;;;;5049868;28;20545;-52
2022/05/29 00:23:27;;;;;;;11.27;2.87;;;10.20;99.90;;;;;;5048787;28;20557;-52
2022/05/29 00:25:54;;;;;;;8.23;2.77;;;10.20;99.90;;;;;;5059190;28;20949;-52
2022/05/29 00:28:22;;;;;;;5.43;2.20;;;10.10;99.90;;;;;;5055455;28;20528;-53
2022/05/29 00:30:49;;;;;;;10.40;2.60;;;10.10;99.90;;;;;;5054979;28;21005;-53
2022/05/29 00:33:15;;;;;;;4.97;2.40;;;10.20;99.90;;;;;;5054197;28;20533;-52
2022/05/29 00:35:42;;;;;;;5.10;2.13;;;10.20;99.90;;;;;;5052456;28;20568;-54
2022/05/29 00:38:12;;;;;;;12.33;3.00;;;10.10;99.90;;;;;;5046596;28;20455;-52
2022/05/29 00:40:46;;;;;;;8.57;2.53;;;10.20;99.90;;;;;;5056210;28;20472;-52
2022/05/29 00:43:13;;;;;;;6.90;2.80;;;10.20;99.90;;;;;;5054648;28;20577;-52
2022/05/29 00:45:47;;;;;;;9.33;2.90;;;10.10;99.90;;;;;;5055110;28;20538;-52
2022/05/29 00:48:16;;;;;;;6.33;2.60;;;10.10;99.90;;;;;;5055014;28;20475;-52
2022/05/29 00:50:43;;;;;;;9.07;3.10;;;10.10;99.90;;;;;;5051786;28;20472;-52
2022/05/29 00:53:14;;;;;;;13.63;2.80;;;10.10;99.90;;;;;;5054045;28;20520;-51
2022/05/29 00:55:41;;;;;;;11.10;3.37;;;10.10;99.90;;;;;;5048215;28;20473;-52
2022/05/29 00:58:08;;;;;;;6.87;2.80;;;10.10;99.90;;;;;;5054793;28;20541;-52
2022/05/29 01:00:35;;;;;;;9.37;2.73;;;10.10;99.90;;;;;;5054569;28;20969;-52
2022/05/29 01:03:03;;;;;;;13.33;2.50;;;10.10;99.90;;;;;;5053042;28;20572;-52
2022/05/29 01:05:33;;;;;;;10.90;2.20;;;10.10;99.90;;;;;;5054721;28;20442;-53
2022/05/29 01:08:03;;;;;;;18.57;3.80;;;10.10;99.90;;;;;;5054258;28;21019;-52
2022/05/29 01:10:39;;;;;;;12.27;2.60;;;10.10;99.90;;;;;;5054081;28;20544;-53
2022/05/29 01:13:11;;;;;;;8.27;2.37;;;10.00;99.90;;;;;;5047910;28;21022;-53
2022/05/29 01:15:49;;;;;;;6.67;2.40;;;10.00;99.90;;;;;;5054334;28;20525;-52
2022/05/29 01:18:26;;;;;;;9.60;2.73;;;10.10;99.90;;;;;;5054242;28;20908;-53
2022/05/29 01:21:16;;;;;;;6.93;2.80;;;10.10;99.90;;;;;;5053649;28;20926;-52
2022/05/29 01:24:17;;;;;;;16.03;2.30;;;10.10;99.90;;;;;;5054057;28;21086;-52
2022/05/29 01:27:05;;;;;;;10.90;2.67;;;10.10;99.90;;;;;;5051314;28;21018;-53
2022/05/29 01:29:39;;;;;;;6.63;1.93;;;10.10;99.90;;;;;;5054224;28;20529;-53
2022/05/29 01:32:29;;;;;;;16.33;2.97;;;10.10;99.90;;;;;;5053610;28;20472;-52
2022/05/29 01:35:04;;;;;;;5.00;2.03;;;10.10;99.90;;;;;;5033625;28;20963;-52
2022/05/29 01:37:37;;;;;;;8.97;2.70;;;10.00;99.90;;;;;;5041543;28;20568;-53
2022/05/29 01:40:09;;;;;;;6.47;2.17;;;10.00;99.90;;;;;;5052792;28;20983;-53
2022/05/29 01:42:43;;;;;;;12.10;2.80;;;9.90;99.90;;;;;;5053519;28;20477;-52
2022/05/29 01:45:18;;;;;;;8.10;2.37;;;9.90;99.90;;;;;;5053739;28;20937;-52
2022/05/29 01:47:49;;;;;;;13.03;2.60;;;9.90;99.90;;;;;;5053834;28;20493;-53
2022/05/29 01:50:21;;;;;;;10.63;2.20;;;9.90;99.90;;;;;;5053415;28;20565;-52
2022/05/29 01:52:50;;;;;;;4.10;1.97;;;9.90;99.90;;;;;;5051783;28;20522;-52
2022/05/29 01:55:22;;;;;;;8.20;2.50;;;9.90;99.90;;;;;;5050726;28;20497;-52
2022/05/29 01:57:51;;;;;;;4.60;2.20;;;9.80;99.90;;;;;;5054044;28;20477;-53
2022/05/29 02:00:22;;;;;;;6.70;2.50;;;9.90;99.90;;;;;;5053528;28;20481;-53
2022/05/29 02:02:52;;;;;;;8.27;2.47;;;9.90;99.90;;;;;;5052011;28;20505;-52
2022/05/29 02:05:23;;;;;;;5.13;2.10;;;9.90;99.90;;;;;;5055885;28;20529;-52
2022/05/29 02:07:56;;;;;;;7.43;3.90;;;9.90;99.90;;;;;;5055745;28;20890;-53
2022/05/29 02:10:30;;;;;;;4.30;2.17;;;9.90;99.90;;;;;;5048061;28;20560;-53
2022/05/29 02:13:03;;;;;;;8.23;2.33;;;9.90;99.90;;;;;;5052565;28;20438;-52
2022/05/29 02:15:38;;;;;;;7.90;2.47;;;9.80;99.90;;;;;;5053427;28;20473;-52
2022/05/29 02:18:11;;;;;;;8.23;2.70;;;9.80;99.90;;;;;;5052405;28;20500;-53
2022/05/29 02:20:41;;;;;;;9.90;2.57;;;9.80;99.90;;;;;;5053529;28;20524;-53
2022/05/29 02:23:12;;;;;;;5.10;2.33;;;9.80;99.90;;;;;;5052337;28;20573;-53
2022/05/29 02:25:40;;;;;;;9.37;2.40;;;9.80;99.90;;;;;;5049672;28;20849;-53
2022/05/29 02:28:11;;;;;;;6.60;2.33;;;9.80;99.90;;;;;;5053123;28;20478;-52
2022/05/29 02:30:46;;;;;;;16.53;3.47;;;9.80;99.90;;;;;;5051891;28;20445;-53
2022/05/29 02:33:18;;;;;;;7.80;2.50;;;9.80;99.90;;;;;;5052714;28;20436;-52
2022/05/29 02:35:54;;;;;;;5.40;2.20;;;9.70;99.90;;;;;;5052959;28;20481;-54
2022/05/29 02:38:28;;;;;;;8.43;2.53;;;9.80;99.90;;;;;;5053037;28;20517;-53
2022/05/29 02:41:00;;;;;;;11.57;2.63;;;9.80;99.90;;;;;;5050609;28;20962;-52
2022/05/29 02:43:36;;;;;;;7.93;2.83;;;9.80;99.90;;;;;;5052380;28;20983;-53
2022/05/29 02:46:11;;;;;;;3.97;2.30;;;9.80;99.90;;;;;;5051666;28;20509;-52
2022/05/29 02:48:43;;;;;;;13.43;2.53;;;9.90;99.90;;;;;;5050646;28;20868;-53
2022/05/29 02:51:23;;;;;;;7.60;2.20;;;9.90;99.90;;;;;;5052029;28;20477;-52
2022/05/29 02:53:49;;;;;;;6.30;2.20;;;9.90;99.90;;;;;;5051433;28;20465;-52
2022/05/29 02:56:16;;;;;;;8.13;2.40;;;9.90;99.90;;;;;;5045273;28;20913;-52
2022/05/29 02:58:48;;;;;;;7.80;2.13;;;9.90;99.90;;;;;;5052557;28;20470;-53
2022/05/29 03:01:26;;;;;;;9.17;2.97;;;9.90;99.90;;;;;;5054725;28;20888;-53
2022/05/29 03:04:09;;;;;;;6.70;2.40;;;10.00;99.90;;;;;;5071933;28;20571;-53
2022/05/29 03:06:46;;;;;;;5.27;2.07;;;10.00;99.90;;;;;;5058482;28;20478;-53
2022/05/29 03:09:21;;;;;;;11.73;3.20;;;9.90;99.90;;;;;;5036944;28;20490;-53
2022/05/29 03:11:48;;;;;;;9.23;2.70;;;10.00;99.90;;;;;;5051511;28;20472;-52
2022/05/29 03:14:29;;;;;;;8.23;2.53;;;9.90;99.90;;;;;;5052328;28;20465;-52
2022/05/29 03:17:12;;;;;;;8.43;2.80;;;9.90;99.90;;;;;;5032446;28;20536;-52
2022/05/29 03:19:49;;;;;;;6.67;2.63;;;9.90;99.90;;;;;;5032369;28;20839;-52
2022/05/29 03:22:24;;;;;;;10.70;2.70;;;9.90;99.90;;;;;;5033988;28;20998;-52
2022/05/29 03:24:55;;;;;;;17.23;4.23;;;9.90;99.90;;;;;;5051551;28;20464;-53
2022/05/29 03:27:28;;;;;;;8.10;2.53;;;9.90;99.90;;;;;;5033716;28;20992;-53
2022/05/29 03:29:59;;;;;;;5.60;2.77;;;9.90;99.90;;;;;;5058656;28;20480;-52
2022/05/29 03:32:28;;;;;;;4.70;2.60;;;9.90;99.90;;;;;;5071502;28;20465;-52
2022/05/29 03:34:54;;;;;;;8.90;2.50;;;9.90;99.90;;;;;;5071783;28;20496;-53
2022/05/29 03:37:21;;;;;;;9.00;2.60;;;9.90;99.90;;;;;;5058350;28;20551;-52
2022/05/29 03:39:48;;;;;;;6.60;2.23;;;10.00;99.90;;;;;;5052040;28;20469;-53
2022/05/29 03:42:16;;;;;;;6.60;3.43;;;10.00;99.90;;;;;;5051345;28;20480;-52
2022/05/29 03:44:42;;;;;;;5.63;2.70;;;10.00;99.90;;;;;;5071007;28;20481;-53
2022/05/29 03:47:09;;;;;;;10.27;2.90;;;10.00;99.90;;;;;;5071915;28;20500;-52
2022/05/29 03:49:37;;;;;;;10.03;2.90;;;10.00;99.90;;;;;;5071989;28;20449;-52
2022/05/29 03:52:04;;;;;;;5.67;2.43;;;9.90;99.90;;;;;;5047030;28;20560;-52
2022/05/29 03:54:31;;;;;;;7.97;2.90;;;10.00;99.90;;;;;;5051486;28;20478;-53
2022/05/29 03:56:57;;;;;;;8.37;2.30;;;9.90;99.90;;;;;;5058404;28;20500;-53
2022/05/29 03:59:24;;;;;;;9.77;3.30;;;9.90;99.90;;;;;;5071847;28;20480;-53
2022/05/29 04:01:51;;;;;;;5.47;2.10;;;9.90;99.90;;;;;;5075104;28;20473;-53
2022/05/29 04:04:17;;;;;;;10.70;2.60;;;9.90;99.90;;;;;;5071774;28;20927;-52
2022/05/29 04:06:45;;;;;;;4.57;2.60;;;9.90;99.90;;;;;;5050465;28;20528;-52
2022/05/29 04:12:05;;;;;;;11.87;2.90;;;10.00;99.90;;;;;;5054955;28;20586;-53
2022/05/29 04:14:32;;;;;;;10.60;2.97;;;10.00;99.90;;;;;;5055765;28;20481;-52
2022/05/29 04:16:59;;;;;;;6.60;2.40;;;10.00;99.90;;;;;;5055561;28;20556;-52
2022/05/29 04:19:25;;;;;;;17.00;2.93;;;10.00;99.90;;;;;;5050270;28;20546;-52
2022/05/29 04:21:53;;;;;;;11.23;2.80;;;10.00;99.90;;;;;;5052946;28;20519;-52
2022/05/29 04:24:20;;;;;;;6.63;2.60;;;10.10;99.90;;;;;;5048174;28;20570;-52
2022/05/29 04:26:47;;;;;;;6.17;2.60;;;10.10;99.90;;;;;;5075432;28;20468;-53
2022/05/29 04:29:13;;;;;;;12.07;2.70;;;10.10;99.90;;;;;;5075467;28;20479;-53
2022/05/29 04:32:59;;;;;;;8.30;2.80;;;10.10;99.90;;;;;;5074333;28;20484;-52
2022/05/29 04:34:27;;;;;;;11.27;2.80;;;10.20;99.90;;;;;;5050493;28;20476;-53
2022/05/29 04:36:55;;;;;;;5.83;2.60;;;10.20;99.90;;;;;;5070934;22;20942;-51
2022/05/29 04:39:21;;;;;;;4.77;2.33;;;10.20;99.90;;;;;;5074498;28;20862;-51
2022/05/29 04:41:48;;;;;;;10.90;2.77;;;10.20;99.90;;;;;;5074584;28;20444;-51
2022/05/29 04:44:14;;;;;;;5.33;2.40;;;10.30;99.90;;;;;;5075181;28;20515;-51
2022/05/29 04:46:41;;;;;;;6.73;2.00;;;10.30;99.90;;;;;;5070016;28;20483;-51
2022/05/29 04:49:08;;;;;;;6.10;2.30;;;10.30;99.90;;;;;;5055082;28;20441;-51
2022/05/29 04:51:34;;;;;;;7.03;2.70;;;10.30;99.90;;;;;;5053112;28;20481;-51
2022/05/29 04:54:02;;;;;;;10.93;3.23;;;10.30;99.90;;;;;;5054763;28;20474;-50
2022/05/29 04:56:28;;;;;;;5.70;2.90;;;10.30;99.90;;;;;;5054837;28;20473;-50
2022/05/29 04:58:55;;;;;;;17.80;3.13;;;10.30;99.90;;;;;;5055134;28;20484;-51
2022/05/29 05:01:22;;;;;;;8.80;2.60;;;10.30;99.90;;;;;;5052563;28;20493;-50
2022/05/29 05:03:48;;;;;;;10.63;3.30;;;10.40;99.90;;;;;;5049436;28;20509;-51
2022/05/29 05:06:15;;;;;;;9.70;3.27;;;10.30;99.90;;;;;;5054455;28;20524;-52
2022/05/29 05:08:41;;;;;;;7.00;2.73;;;10.40;99.90;;;;;;5054860;28;20488;-54
2022/05/29 05:11:09;;;;;;;9.37;2.53;;;10.40;99.90;;;;;;5053687;28;20534;-54
2022/05/29 05:13:36;;;;;;;5.97;2.73;;;10.50;99.90;;;;;;5054720;28;20474;-54
2022/05/29 05:16:04;;;;;;;13.33;3.03;;;10.50;99.90;;;;;;5053417;28;20967;-55
2022/05/29 05:18:30;;;;;;;7.50;3.40;;;10.50;99.90;;;;;;5054313;28;20914;-54
2022/05/29 05:20:57;;;;;;;6.90;3.20;;;10.50;99.90;;;;;;5053489;28;20522;-53
2022/05/29 05:23:23;;;;;;;5.07;2.70;;;10.60;99.90;;;;;;5054150;28;20516;-54
2022/05/29 05:25:50;;;;;;;7.10;2.73;;;10.50;99.90;;;;;;5054546;28;20477;-53
2022/05/29 05:28:18;;;;;;;10.00;3.30;;;10.60;99.90;;;;;;5054511;28;20500;-53
2022/05/29 05:30:47;;;;;;;10.40;2.73;;;10.60;99.90;;;;;;5053458;28;20490;-54
2022/05/29 05:33:14;;;;;;;7.03;2.60;;;10.60;99.90;;;;;;5054043;28;20460;-54
2022/05/29 05:35:40;;;;;;;8.87;3.93;;;10.60;99.90;;;;;;5054322;28;20822;-53
2022/05/29 05:38:07;;;;;;;7.33;2.90;;;10.70;99.90;;;;;;5053867;28;20509;-53
2022/05/29 05:40:35;;;;;;;14.80;2.73;;;10.70;99.90;;;;;;5035398;28;20486;-53
2022/05/29 05:43:02;;;;;;;5.27;2.97;;;10.70;99.90;;;;;;5037291;28;20490;-54
2022/05/29 05:45:29;;;;;;;15.43;3.60;;;10.70;99.90;;;;;;5054152;28;20474;-54
2022/05/29 05:47:56;;;;;;;20.50;4.90;;;10.70;99.90;;;;;;5053713;28;20505;-53
2022/05/29 05:50:23;;;;;;;10.07;3.27;;;10.70;99.90;;;;;;5053877;28;20840;-53
2022/05/29 05:52:49;;;;;;;9.97;3.53;;;10.70;99.90;;;;;;5051505;28;20496;-53
2022/05/29 05:55:16;;;;;;;7.03;3.27;;;10.70;99.90;;;;;;5053857;28;20481;-54
2022/05/29 05:57:43;;;;;;;8.23;2.53;;;10.70;99.90;;;;;;5052771;28;20514;-53
2022/05/29 06:00:12;;;;;;;12.67;3.20;;;10.70;99.90;;;;;;5053829;28;20485;-53
2022/05/29 06:02:42;;;;;;;5.50;2.93;;;10.70;99.90;;;;;;5053157;28;20458;-53
2022/05/29 06:05:10;;;;;;;10.80;3.43;;;10.70;99.90;;;;;;5053564;28;20572;-54
2022/05/29 06:07:36;;;;;;;13.30;3.00;;;10.80;99.90;;;;;;5053294;28;21135;-54
2022/05/29 06:10:03;;;;;;;8.50;3.70;;;10.80;99.90;;;;;;5053642;28;20912;-53
2022/05/29 06:12:30;;;;;;;10.47;3.23;;;10.90;99.90;;;;;;5051640;28;20458;-54
2022/05/29 06:14:58;;;;;;;7.07;2.87;;;10.90;99.90;;;;;;5053010;28;20956;-54
2022/05/29 06:17:25;;;;;;;11.73;3.00;;;10.90;99.90;;;;;;5053321;28;20478;-54
2022/05/29 06:19:53;;;;;;;10.27;3.40;;;11.00;99.90;;;;;;5053231;28;20482;-53
2022/05/29 06:22:19;;;;;;;14.40;3.97;;;11.00;99.90;;;;;;5052179;28;20474;-54
2022/05/29 06:24:46;;;;;;;9.83;3.17;;;11.00;99.90;;;;;;5041570;28;20568;-53
2022/05/29 06:27:12;;;;;;;8.17;2.60;;;11.10;99.90;;;;;;5052947;28;20474;-53
2022/05/29 06:29:39;;;;;;;11.53;3.67;;;11.10;99.90;;;;;;5053225;28;20470;-53
2022/05/29 06:32:08;;;;;;;7.50;2.77;;;11.10;99.90;;;;;;5052323;28;20935;-54
2022/05/29 06:34:36;;;;;;;6.83;2.80;;;11.20;99.90;;;;;;5052847;28;20454;-53
2022/05/29 06:37:06;;;;;;;12.77;4.03;;;11.20;99.90;;;;;;5052882;28;20501;-54
2022/05/29 06:39:34;;;;;;;8.60;2.60;;;11.20;99.90;;;;;;5052138;28;20470;-54
2022/05/29 06:42:00;;;;;;;19.50;3.67;;;11.20;99.90;;;;;;5052317;28;20465;-54
2022/05/29 06:44:27;;;;;;;5.70;2.40;;;11.20;99.90;;;;;;5052777;28;21192;-54
2022/05/29 06:46:53;;;;;;;9.60;3.43;;;11.20;99.90;;;;;;5052640;28;20493;-54
2022/05/29 06:49:20;;;;;;;9.07;3.23;;;11.20;99.90;;;;;;5052924;28;20509;-54
2022/05/29 06:51:47;;;;;;;9.70;3.10;;;11.20;99.90;;;;;;5052294;28;20540;-53
2022/05/29 06:54:15;;;;;;;13.60;3.40;;;11.20;99.90;;;;;;5051321;28;20486;-53
2022/05/29 06:56:42;;;;;;;10.63;3.40;;;11.20;99.90;;;;;;5052509;28;20494;-53
2022/05/29 06:59:08;;;;;;;9.27;3.10;;;11.30;99.90;;;;;;5052490;28;20943;-53
2022/05/29 07:07:17;;;;;;;5.33;2.70;;;11.30;99.90;;;;;;5049964;28;20473;-53
2022/05/29 07:09:45;;;;;;;8.47;3.10;;;11.30;99.90;;;;;;5052340;28;20481;-53
2022/05/29 07:12:15;;;;;;;8.50;3.33;;;11.30;99.90;;;;;;5051714;28;20496;-52
2022/05/29 07:14:44;;;;;;;10.90;3.20;;;11.40;99.90;;;;;;5052487;28;20434;-53
2022/05/29 07:17:11;;;;;;;12.33;3.60;;;11.50;99.90;;;;;;5051318;28;20558;-53
2022/05/29 07:19:40;;;;;;;6.77;3.10;;;11.60;99.90;;;;;;5052382;28;20438;-55
2022/05/29 07:22:07;;;;;;;5.70;2.53;;;11.60;99.90;;;;;;5050345;28;20462;-55
2022/05/29 07:24:36;;;;;;;11.73;2.60;;;11.70;99.90;;;;;;5051605;28;20570;-53
2022/05/29 07:27:04;;;;;;;7.37;2.67;;;11.80;99.90;;;;;;5052086;28;20505;-53
2022/05/29 07:29:31;;;;;;;7.50;2.47;;;11.90;99.90;;;;;;5051931;28;20943;-52
2022/05/29 07:31:58;;;;;;;6.27;2.80;;;12.00;99.90;;;;;;5051467;28;20497;-52
2022/05/29 07:34:25;;;;;;;12.33;2.60;;;12.10;99.90;;;;;;5051254;28;20446;-53
2022/05/29 07:36:52;;;;;;;7.90;2.37;;;12.20;99.90;;;;;;5050633;28;20559;-53
2022/05/29 07:39:19;;;;;;;5.03;2.33;;;12.30;99.90;;;;;;5052095;28;20466;-52
2022/05/29 07:44:31;;;;;;;5.60;2.50;;;12.40;32.00;;;;;;5051994;28;20983;-52
2022/05/29 07:46:58;;;;;;;5.63;2.77;;;12.40;36.40;;;;;;5052027;28;20516;-52
2022/05/29 07:49:25;;;;;;;8.50;2.77;;;12.40;39.00;;;;;;5051312;28;20544;-54
2022/05/29 07:51:51;;;;;;;6.90;2.93;;;12.50;41.00;;;;;;5045651;28;20890;-54
2022/05/29 07:54:20;;;;;;;9.93;3.13;;;12.50;37.20;;;;;;5050992;28;21046;-52
2022/05/29 07:56:47;;;;;;;11.37;2.73;;;12.50;47.30;;;;;;5049945;28;20482;-53
2022/05/29 07:59:16;;;;;;;3.53;2.13;;;12.50;47.10;;;;;;5050448;28;20516;-53
2022/05/29 08:01:43;;;;;;;9.37;3.20;;;12.50;46.70;;;;;;5050935;28;20454;-53
2022/05/29 08:04:10;;;;;;;5.33;2.47;;;12.40;50.20;;;;;;5051374;28;20509;-53
2022/05/29 08:06:37;;;;;;;52.00;4.20;;;12.30;48.90;;;;;;5050475;28;20478;-52
2022/05/29 08:09:04;;;;;;;10.83;2.67;;;12.30;42.10;;;;;;5051517;28;20474;-52
2022/05/29 08:11:31;;;;;;;2.60;2.10;;;12.20;31.20;;;;;;5051031;28;20567;-53
2022/05/29 08:13:57;;;;;;;5.33;2.60;;;12.10;99.90;;;;;;5051551;28;20477;-53
2022/05/29 08:16:24;;;;;;;25.83;3.37;;;12.10;99.90;;;;;;5051668;28;20469;-53
2022/05/29 08:18:53;;;;;;;19.17;2.63;;;12.00;99.90;;;;;;5050730;28;20478;-54
2022/05/29 08:21:19;;;;;;;19.23;3.30;;;11.90;99.90;;;;;;5049724;28;20458;-53
2022/05/29 08:30:37;;;;;;;14.57;2.80;;;11.80;99.90;;;;;;5047052;28;20474;-53
2022/05/29 08:32:02;;;;;;;5.03;2.27;;;11.80;99.90;;;;;;5030797;28;20514;-53
2022/05/29 08:34:30;;;;;;;20.13;3.13;;;11.80;99.90;;;;;;5048665;28;20918;-52
2022/05/29 08:36:56;;;;;;;4.50;2.10;;;11.90;99.90;;;;;;5049060;28;20524;-53
2022/05/29 08:39:23;;;;;;;5.23;2.50;;;12.00;99.90;;;;;;5051362;28;20470;-53
2022/05/29 08:41:52;;;;;;;10.07;2.70;;;12.10;99.90;;;;;;5050726;28;20491;-53
2022/05/29 08:44:24;;;;;;;4.83;2.50;;;12.10;99.90;;;;;;5051289;28;20508;-54
2022/05/29 08:46:52;;;;;;;3.87;2.50;;;12.40;99.90;;;;;;5054044;28;20489;-52
2022/05/29 08:49:22;;;;;;;4.37;2.07;;;12.60;99.90;;;;;;5054198;28;20504;-55
2022/05/29 08:52:12;;;;;;;9.97;3.00;;;12.70;38.70;;;;;;5054670;28;20473;-53
2022/05/29 08:54:51;;;;;;;99.37;6.43;;;12.70;41.20;;;;;;5049477;28;20525;-54
2022/05/29 08:57:48;;;;;;;61.53;2.70;;;12.60;65.30;;;;;;5035735;28;20498;-53
2022/05/29 09:00:21;;;;;;;5.53;1.87;;;12.40;63.50;;;;;;5035085;28;20447;-54
2022/05/29 09:03:01;;;;;;;7.57;2.83;;;12.40;41.10;;;;;;5034427;28;20481;-53
2022/05/29 09:05:34;;;;;;;7.03;2.27;;;12.30;38.00;;;;;;5046404;28;20520;-53
2022/05/29 09:08:06;;;;;;;48.23;3.47;;;12.30;22.30;;;;;;5055086;28;20522;-53
2022/05/29 09:10:38;;;;;;;2.03;1.60;;;12.40;24.90;;;;;;5053721;28;20489;-54
2022/05/29 09:13:10;;;;;;;148.83;4.53;;;12.50;34.90;;;;;;5054053;28;20434;-54
2022/05/29 09:15:40;;;;;;;110.60;5.23;;;12.50;51.80;;;;;;5055075;28;20450;-53
2022/05/29 09:18:12;;;;;;;33.00;2.43;;;12.70;44.80;;;;;;5053638;28;20520;-53
2022/05/29 09:20:43;;;;;;;1.73;1.63;;;13.00;46.90;;;;;;5052778;28;20909;-54
2022/05/29 09:23:17;;;;;;;2.83;1.50;;;13.30;61.70;;;;;;5056807;28;20506;-53
2022/05/29 09:25:45;;;;;;;8.53;1.43;;;13.30;65.60;;;;;;5034439;28;20536;-54
2022/05/29 09:28:17;;;;;;;1.67;1.17;;;13.20;69.60;;;;;;5034564;28;20882;-54
2022/05/29 09:30:44;;;;;;;32.87;2.40;;;13.10;49.50;;;;;;5034309;28;20489;-54
2022/05/29 09:33:16;;;;;;;4.67;1.80;;;12.90;29.80;;;;;;5041550;28;20501;-53
2022/05/29 09:35:50;;;;;;;4.67;1.60;;;12.50;99.90;;;;;;5054084;28;20462;-54
2022/05/29 09:38:25;;;;;;;4.43;1.87;;;12.10;99.90;;;;;;5054113;28;20501;-53
2022/05/29 09:40:59;;;;;;;1.43;1.33;;;11.80;99.90;;;;;;5053576;28;20449;-54
2022/05/29 09:43:28;;;;;;;2.73;1.20;;;11.60;99.90;;;;;;5054052;28;20441;-54
2022/05/29 09:45:55;;;;;;;6.70;1.90;;;11.50;99.90;;;;;;5054147;28;20489;-54
2022/05/29 09:51:13;;;;;;;7.23;2.87;;;11.40;99.90;;;;;;5053406;28;20418;-53
2022/05/29 09:53:47;;;;;;;8.33;3.23;;;11.40;84.00;;;;;;5053055;28;20497;-53
2022/05/29 09:56:15;;;;;;;7.20;3.00;;;11.60;68.90;;;;;;5054375;28;20444;-53
2022/05/29 09:58:47;;;;;;;6.53;3.30;;;11.80;62.30;;;;;;5053361;28;20470;-54
2022/05/29 10:01:27;;;;;;;5.10;2.20;;;12.00;79.00;;;;;;5053320;28;20477;-53
2022/05/29 10:03:56;;;;;;;6.57;2.70;;;12.00;99.90;;;;;;5052597;28;20485;-53
2022/05/29 10:06:27;;;;;;;7.50;3.40;;;12.20;99.90;;;;;;5053505;28;20482;-53
2022/05/29 10:09:08;;;;;;;7.27;2.83;;;12.40;99.90;;;;;;5053507;28;20850;-54
2022/05/29 10:11:35;;;;;;;4.33;2.20;;;12.40;99.90;;;;;;5053065;28;20477;-55
2022/05/29 10:14:21;;;;;;;18.60;2.93;;;12.50;99.90;;;;;;5054018;28;20486;-54
2022/05/29 10:16:49;;;;;;;8.43;3.27;;;12.40;99.90;;;;;;5053172;28;20517;-53
2022/05/29 10:19:33;;;;;;;21.83;3.37;;;12.50;99.90;;;;;;5052571;28;20462;-54
2022/05/29 10:22:01;;;;;;;4.80;3.30;;;12.70;99.90;;;;;;5052893;28;20538;-54
2022/05/29 10:24:36;;;;;;;13.07;3.07;;;12.80;99.90;;;;;;5037459;28;20872;-53
2022/05/29 10:27:06;;;;;;;6.63;2.93;;;12.60;99.90;;;;;;5033359;28;20466;-53
2022/05/29 10:29:36;;;;;;;5.43;2.17;;;12.60;99.90;;;;;;5048542;28;20478;-54
2022/05/29 10:32:06;;;;;;;6.53;2.60;;;12.50;99.90;;;;;;5052320;28;20481;-53
2022/05/29 10:34:36;;;;;;;7.10;3.33;;;12.40;99.90;;;;;;5051470;28;20490;-53
2022/05/29 10:37:27;;;;;;;9.80;3.40;;;12.40;99.90;;;;;;5053129;28;21013;-53
2022/05/29 10:40:11;;;;;;;8.60;3.00;;;12.30;99.90;;;;;;5053000;28;20546;-52
2022/05/29 10:42:44;;;;;;;5.67;2.30;;;12.20;99.90;;;;;;5051934;28;20478;-53
2022/05/29 10:45:19;;;;;;;6.87;2.17;;;12.20;99.90;;;;;;5052843;28;20990;-53
2022/05/29 10:48:05;;;;;;;5.27;2.20;;;12.20;99.90;;;;;;5051764;28;20477;-52
2022/05/29 10:50:47;;;;;;;23.97;2.17;;;12.20;99.90;;;;;;5046297;28;20476;-52
2022/05/29 10:53:24;;;;;;;37.17;2.60;;;12.10;99.90;;;;;;5050238;28;20486;-52
2022/05/29 10:56:02;;;;;;;22.13;2.37;;;12.10;99.90;;;;;;5052623;28;20442;-52
2022/05/29 10:58:43;;;;;;;2.40;1.50;;;12.10;99.90;;;;;;5033012;28;20463;-52
2022/05/29 11:04:38;;;;;;;2.60;1.57;;;12.20;30.20;;;;;;5046330;28;20445;-52
2022/05/29 11:07:21;;;;;;;6.83;2.67;;;12.20;99.90;;;;;;5053185;28;20486;-52
2022/05/29 11:10:03;;;;;;;12.43;4.80;;;12.20;73.50;;;;;;5049544;28;20452;-53
2022/05/29 11:12:41;;;;;;;5.53;2.37;;;12.20;99.90;;;;;;5044585;28;20444;-52
2022/05/29 11:15:24;;;;;;;1.60;1.50;;;12.20;27.60;;;;;;5052270;28;20477;-52
2022/05/29 11:18:03;;;;;;;2.60;1.67;;;12.30;29.40;;;;;;5052457;28;20462;-52
2022/05/29 11:20:49;;;;;;;9.40;1.83;;;12.30;37.10;;;;;;5050238;28;21040;-52
2022/05/29 11:23:50;;;;;;;3.10;1.30;;;12.50;30.50;;;;;;5045751;28;20582;-52
2022/05/29 11:26:31;;;;;;;1.40;1.20;;;12.60;44.40;;;;;;5051567;28;20512;-52
2022/05/29 11:29:18;;;;;;;1.13;1.00;;;12.60;52.00;;;;;;5052227;28;20477;-52
2022/05/29 11:31:55;;;;;;;1.20;1.10;;;12.70;49.10;;;;;;5051705;28;20437;-52
2022/05/29 11:34:32;;;;;;;3.47;1.50;;;12.70;52.80;;;;;;5051251;28;20486;-52
2022/05/29 11:37:28;;;;;;;8.50;1.70;;;12.80;34.60;;;;;;5051941;28;20497;-52
2022/05/29 11:39:59;;;;;;;3.10;1.70;;;12.80;30.90;;;;;;5047886;28;20504;-52
2022/05/29 11:42:27;;;;;;;6.20;1.37;;;12.80;22.30;;;;;;5050624;28;20466;-52
2022/05/29 11:45:01;;;;;;;3.03;1.63;;;12.90;81.30;;;;;;5048908;28;20940;-53
2022/05/29 11:53:23;;;;;;;3.70;1.50;;;13.20;46.50;;;;;;5044974;28;21117;-52
2022/05/29 11:55:51;;;;;;;0.80;0.70;;;13.70;48.10;;;;;;5052224;28;20458;-51
2022/05/29 11:58:22;;;;;;;1.53;1.00;;;14.20;92.40;;;;;;5054134;28;20496;-53
2022/05/29 12:00:55;;;;;;;19.90;2.27;;;14.40;97.80;;;;;;5051434;28;20488;-61
2022/05/29 12:03:30;;;;;;;37.33;2.33;;;14.60;87.60;;;;;;5050645;28;20465;-52
2022/05/29 12:06:05;;;;;;;21.90;1.90;;;14.80;99.90;;;;;;5052819;28;20473;-53
2022/05/29 12:08:41;;;;;;;5.83;1.60;;;14.90;99.90;;;;;;5051986;28;20990;-54
2022/05/29 12:11:24;;;;;;;2.00;1.50;;;15.00;99.90;;;;;;5048962;28;20461;-53
2022/05/29 12:14:02;;;;;;;2.80;1.53;;;15.00;99.90;;;;;;5055105;28;20477;-54
2022/05/29 12:16:33;;;;;;;1.57;1.47;;;14.70;99.90;;;;;;5052964;28;20442;-52
2022/05/29 12:19:06;;;;;;;2.30;1.83;;;14.50;99.90;;;;;;5055496;28;20492;-52
2022/05/29 12:21:37;;;;;;;14.60;4.73;;;14.30;96.80;;;;;;5059045;28;20472;-53
2022/05/29 12:24:09;;;;;;;1.47;1.37;;;14.10;91.90;;;;;;5060560;28;20458;-52
2022/05/29 12:26:42;;;;;;;5.63;2.13;;;13.70;81.80;;;;;;5058529;28;20497;-53
2022/05/29 12:29:15;;;;;;;4.33;1.40;;;13.40;75.00;;;;;;5055040;28;20485;-53
2022/05/29 12:31:46;;;;;;;2.10;1.53;;;13.20;66.90;;;;;;5055424;28;20485;-53
2022/05/29 12:34:18;;;;;;;4.03;3.30;;;13.10;56.90;;;;;;5054824;28;20521;-52
2022/05/29 12:37:20;;;;;;;4.43;1.90;;;13.10;48.70;;;;;;5052826;28;20485;-53
2022/05/29 12:40:09;;;;;;;5.43;2.30;;;13.00;45.70;;;;;;5050495;28;20485;-53
2022/05/29 12:42:56;;;;;;;4.47;3.30;;;12.80;99.90;;;;;;5044990;28;20497;-54
2022/05/29 12:45:37;;;;;;;3.93;2.17;;;12.70;99.90;;;;;;5050063;28;21370;-54
2022/05/29 12:48:57;;;;;;;7.10;1.67;;;12.50;99.90;;;;;;5045901;28;20473;-53
2022/05/29 12:51:40;;;;;;;4.20;2.07;;;12.40;99.90;;;;;;5048028;28;20461;-53
2022/05/29 12:54:37;;;;;;;5.13;3.00;;;12.30;99.90;;;;;;5053632;28;20454;-59
2022/05/29 12:57:39;;;;;;;4.20;2.23;;;12.30;99.90;;;;;;5046374;28;20472;-55
2022/05/29 13:00:29;;;;;;;3.60;1.93;;;12.40;99.90;;;;;;5044092;28;20548;-54
2022/05/29 13:03:15;;;;;;;3.17;2.50;;;12.40;99.90;;;;;;5050054;28;20487;-53
2022/05/29 13:06:04;;;;;;;4.10;1.93;;;12.40;99.90;;;;;;5052957;28;20478;-52
2022/05/29 13:08:51;;;;;;;4.80;1.93;;;12.50;99.90;;;;;;5046318;28;21030;-53
2022/05/29 13:11:21;;;;;;;4.83;1.50;;;12.50;99.90;;;;;;5045528;28;20560;-53
2022/05/29 13:13:50;;;;;;;1.77;1.67;;;12.60;99.90;;;;;;5046953;28;20505;-52
2022/05/29 13:16:23;;;;;;;4.20;1.50;;;12.60;99.90;;;;;;5044006;28;20456;-52
2022/05/29 13:19:18;;;;;;;1.50;1.30;;;12.80;99.90;;;;;;5051760;28;20450;-53
2022/05/29 13:22:00;;;;;;;1.70;1.20;;;12.90;99.90;;;;;;5043179;28;20469;-54
2022/05/29 13:24:29;;;;;;;1.67;1.47;;;13.00;99.90;;;;;;5044889;28;20453;-54
2022/05/29 13:27:30;;;;;;;1.47;1.30;;;13.10;90.40;;;;;;5045012;28;20519;-53
2022/05/29 13:29:59;;;;;;;1.77;1.50;;;13.20;99.90;;;;;;4963287;28;20578;-52
2022/05/29 13:32:27;;;;;;;8.23;1.93;;;13.30;99.90;;;;;;5028077;28;20486;-53
2022/05/29 13:35:16;;;;;;;2.83;1.77;;;13.40;99.90;;;;;;5041710;28;20466;-53
2022/05/29 13:37:46;;;;;;;4.70;1.63;;;13.50;38.60;;;;;;5049946;28;21010;-53
2022/05/29 13:40:45;;;;;;;1.63;1.40;;;13.50;56.10;;;;;;5041211;28;20971;-52